首页
METAR-TAF:

METAR-TAF

机场 :

恩吉利國際機場

金夏沙, 刚果

纬度: 04-23S, 经度: 015-26E, 海拔: 309米

当前天气观测

该预报发布于53分钟前的11:00 UTC
风速10节,风向
温度 30°C
湿度 55%
气压 1011 hPa
能见度10公里或以上
少量云层高于2300英尺

METAR: FZAA 191100Z 35010KT 9999 FEW023 30/20 Q1011 NOSIG

时间: 12:53 (11:53 UTC)

预报

该预报发布于53分钟前的11:00 UTC
预报有效从19日的 12点(UTC)到 20日的 18点(UTC)
风速10节,风向西
能見度: 8000
少量云层高于2400英尺
成为
从 19日的 12点(UTC)到 19日的 14点(UTC)
散云层高于2400英尺
少量云层高于3000英尺, 积雨云.
几率 30%
从 19日的 15点(UTC)到 19日的 18点(UTC)
雷暴
成为
从 19日的 18点(UTC)到 19日的 20点(UTC)
风速4节,风向南转西南
少量云层高于1800英尺
成为
从 20日的 10点(UTC)到 20日的 12点(UTC)
风速10节,风向西北
散云层高于2400英尺
少量云层高于3000英尺, 积雨云.
短暂存在
从 20日的 14点(UTC)到 20日的 18点(UTC)
雷暴

TAF: FZAA 191100Z 1912/2018 28010KT 8000 FEW024 BECMG 1912/1914 SCT024 FEW030CB PROB30 1915/1918 TS BECMG 1918/1920 20004KT FEW018 BECMG 2010/2012 32010KT SCT024 FEW030CB TEMPO 2014/2018 TS

超过4000个机场的气象观测和天气预报(METAR&TAF报告)。

可查询的气象台以黄色和红色小点在地图上表示。

将鼠标移到小点上方,可查看气象台名称。

然后点击查看天气观测和预报。

如需切换地图:点击带黑十字的绿色按钮放大地图;点击带横线的绿色按钮缩小地图;或者点击绿色箭头查看邻近地区的地图。


METAR-TAF: